SUAA    
 162000Z 29007KT 9999 FEW016 BKN200 30/23 Q1002   
 SUCA    
 162000Z 32007KT CAVOK 29/25 Q1002     
 SUDU    
 141900Z 03010KT 9999 FEW030 42/11 Q1009    
 SULS    
 161900Z 29010KT 250V320 9999 FEW020 SCT070 OVC200 30/21 Q1002 
 SUMU    
 161900Z 30010KT 9999 FEW030 BKN200 31/22 Q1002 NOSIG  
 SUSO    
 152100Z 02011G21KT 9999 SCT020 SCT027 FEW033TCU 39/23 Q1003  
 SABE    
 161900Z 30007KT 220V330 9999 FEW045 SCT100 31/22 Q1002 TEMPO 
 SACO    
 161900Z VRB07KT 9999 FEW040 FEW050CB SCT200 35/18 Q1002 BECMG 
 SADF    
 161900Z 30007KT 260V330 CAVOK 30/22 Q1002 RMK PP000  
 SAEZ    
 161900Z 28008KT 9999 FEW045 SCT100 33/22 Q1002 NOSIG RMK 
 SAWG    
 161918Z 16021G36KT 090V180 9999 SHRA SCT020 SCT025CB 11/01 Q1010= 
 SAZB    
 152012Z 02025G36KT 8000 TSRA FEW050CB OVC060 24/19 Q1000  
 SAZM    
 020100Z 27003KT CAVOK 02/00 Q1017     
 SBPA    
 162000Z 25005KT 200V270 9999 VCSH SCT035 FEW040TCU 38/21 Q1003 
 SGAS    
 162000Z 01015KT 9999 FEW040 42/17 Q1004    
 SGES    
 162000Z 34013KT 9999 SCT033 39/17 Q1006    
 SCCI    
 161900Z 18020KT CAVOK 10/01 Q1013 NOSIG    
 SCRM    
 161900Z 33010KT 9999 FEW015 SCT025 BKN040 00/M01 Q1004 NOSIG